Pireps
You are here: Olympic Virtual Pireps

Flight EUT013

  • Submitted By: Stavros Sarikas
  • Departure Airport: NIKOLA TESLA (LYBE)
  • Arrival Airport: Eleftherios Venizelos International Airport (LGAV)
  • Aircraft: A320-200 (SX-OAH)
  • Flight Time: 01.41
  • Date Submitted: 18/08/2017
  • Route: TPL L863 RAVAK UY505 NISVA Y505 NIKTI UN127 LMO UG33 NEVRA
  • Status: Accepted
Flight Details
Gross Revenue:
(138 load / € 200.00 per unit
€ 27, 600.00
Fuel Cost:
(-1880 fuel used @ 0.19 / unit)
(€ -357.20)

Additional Log Information:

View Log

Aircraft Used in flight is Airbus A320 British Airways G-EUUU
14:22 Boarding
14:22 Navigation Lights ON at 350 Feet
14:22 Beacon Lights ON at 350 Feet
14:22 Brakes are On
14:22 In Air Refuel Suspected
14:26 Engine 2 Started
14:27 Engine 1 Started
14:28 Brakes are Released
14:28 Pushing back
14:29 Flaps 3 Selected at 350ft and 28kts
14:29 Taxi Lights ON at 350 Feet
14:30 Landing Lights ON at 350 AGL
14:30 Strobe Lights ON at 350 Feet
14:31 You Took off @ 140 Knots and Flaps at Position 3 With a heading of 122 Degrees
Departure Weather LYBE 181100Z 08006KT 040V100 CAVOK 32/14 Q1018 NOSIG
Departure Coordinates 44.8152730001161/ 20.3163404895942
Takeoff Weight=62702KG Fuel Weight=7860KG
14:31 Paused
14:31 TOC Reached
14:31 Unpaused
14:31 Landing Gear Up @ 148 Knots and 410 Feet
14:31 Taxi Lights OFF at 420 Feet
14:32 Flaps 2 Selected at 1910ft and 155kts
14:32 Flaps 0 Selected at 2090ft and 189kts
14:35 Above FL100 you need to switch of the landing lights
14:35 Landing Lights OFF at 10420 AGL
15:00 Overspeed
15:00 Recovered from Overspeed
15:02 Overspeed
15:02 Recovered from Overspeed
15:42 Below 10000 feet you are not allowed to go over 250 knots
15:43 Landing Lights ON at 9810 AGL
15:48 You exceeded maximum bank angle
15:55 Flaps 1 Selected at 2510ft and 204kts
15:56 Flaps 3 Selected at 2200ft and 193kts
15:56 Landing Gear Down @ 188 Knots and 2150 Feet
15:56 Flaps 4 Selected at 2080ft and 171kts
15:56 Taxi Lights ON at 2060 Feet
15:56 Flaps 5 Selected at 2050ft and 163kts
15:59 You Landed @ 128 Knots with -476 Vertical Speed With a heading of 37 and with 1.92 G Force
Arrival Weather: LGAV 181220Z 02022KT 9999 FEW025 33/07 Q1013 NOSIG
Arrival Coordinates 37.9240461674459/ 23.9212293326288
Landing Weight=59216KG Fuel Weight=4372KG
15:59 Paused
15:59 Taxiing to gate
16:00 Landing Lights OFF at 320 AGL
16:00 Strobe Lights OFF at 320 Feet
16:00 Flaps 0 Selected at 320ft and 22kts
16:03 Brakes are On
16:03 Unpaused
Pirep logged with OA Virtual Tracking 1.0.2.3

Comments

Commenter Comment
Stavros Sarikas Καλησπέρα.Στις 15.00 και στις 15.02 τοπική ώρα Ελλάδος υπήρχαν overspeed της τάξης του ενός δευτερολέπτου λόγο απότομων αλλαγών κατεύθυνσης αέρα.Σας ευχαριστώ

Route Map